createdAt,value
2023-03-14T00:00:41.200Z,2.00
2023-03-14T00:03:45.014Z,2.13
2023-03-14T00:06:50.540Z,1.83
2023-03-14T00:09:53.931Z,2.37
2023-03-14T00:12:56.865Z,2.03
2023-03-14T00:16:05.091Z,2.00
2023-03-14T00:19:08.305Z,2.27
2023-03-14T00:22:12.562Z,2.03
2023-03-14T00:25:15.584Z,2.37
2023-03-14T00:28:18.578Z,2.37
2023-03-14T00:31:21.691Z,1.97
2023-03-14T00:34:24.773Z,2.20
2023-03-14T00:37:29.692Z,2.13
2023-03-14T00:40:32.622Z,1.83
2023-03-14T00:43:35.710Z,2.23
2023-03-14T00:46:40.668Z,2.07
2023-03-14T00:49:44.648Z,2.20
2023-03-14T00:52:49.844Z,2.37
2023-03-14T00:55:53.057Z,1.70
2023-03-14T00:58:56.885Z,2.07
2023-03-14T01:01:59.942Z,1.80
2023-03-14T01:05:03.103Z,1.97
2023-03-14T01:08:08.728Z,1.90
2023-03-14T01:11:14.073Z,2.07
2023-03-14T01:14:17.169Z,2.27
2023-03-14T01:17:20.121Z,1.90
2023-03-14T01:20:23.216Z,1.77
2023-03-14T01:23:27.538Z,1.77
2023-03-14T01:26:33.303Z,2.50
2023-03-14T01:29:36.270Z,1.80
2023-03-14T01:32:39.551Z,2.40
2023-03-14T01:35:42.563Z,1.67
2023-03-14T01:38:46.928Z,2.20
2023-03-14T01:41:50.051Z,2.13
2023-03-14T01:44:55.145Z,2.27
2023-03-14T01:47:58.151Z,2.00
2023-03-14T01:51:02.696Z,1.93
2023-03-14T01:54:13.794Z,2.10
2023-03-14T01:57:21.100Z,2.17
2023-03-14T02:00:25.302Z,1.63
2023-03-14T02:03:31.223Z,2.07
2023-03-14T02:06:40.851Z,2.17
2023-03-14T02:09:45.908Z,2.30
2023-03-14T02:12:49.944Z,2.33
2023-03-14T02:15:53.079Z,3.00
2023-03-14T02:18:56.085Z,2.00
2023-03-14T02:22:03.800Z,2.30
2023-03-14T02:25:12.328Z,2.53
2023-03-14T02:28:17.108Z,2.20
2023-03-14T02:31:20.161Z,2.37
2023-03-14T02:34:23.137Z,2.10
2023-03-14T02:37:30.496Z,2.20
2023-03-14T02:40:33.447Z,2.27
2023-03-14T02:43:37.816Z,2.03
2023-03-14T02:46:40.727Z,1.93
2023-03-14T02:49:44.116Z,2.30
2023-03-14T02:52:47.080Z,2.60
2023-03-14T02:55:50.883Z,2.90
2023-03-14T02:58:55.231Z,2.13
2023-03-14T03:01:58.162Z,2.43
2023-03-14T03:05:01.103Z,2.47
2023-03-14T03:08:04.503Z,2.57
2023-03-14T03:11:08.540Z,2.60
2023-03-14T03:14:12.803Z,2.07
2023-03-14T03:17:15.773Z,2.10
2023-03-14T03:20:18.900Z,2.10
2023-03-14T03:23:22.025Z,2.77
2023-03-14T03:26:25.018Z,2.77
2023-03-14T03:29:29.330Z,2.27
2023-03-14T03:32:32.432Z,2.33
2023-03-14T03:35:35.486Z,2.07
2023-03-14T03:38:38.778Z,2.53
2023-03-14T03:41:41.713Z,2.27
2023-03-14T03:44:46.018Z,2.10
2023-03-14T03:47:48.962Z,2.47
2023-03-14T03:50:52.003Z,2.40
2023-03-14T03:53:55.035Z,2.37
2023-03-14T03:56:58.015Z,2.07
2023-03-14T04:00:02.336Z,2.20
2023-03-14T04:03:05.344Z,2.07
2023-03-14T04:06:10.599Z,2.00
2023-03-14T04:09:14.295Z,2.20
2023-03-14T04:12:17.806Z,2.17
2023-03-14T04:15:22.105Z,2.40
2023-03-14T04:18:25.833Z,2.20
2023-03-14T04:21:28.819Z,2.00
2023-03-14T04:24:31.893Z,2.27
2023-03-14T04:27:34.816Z,2.17
2023-03-14T04:30:39.173Z,2.37
2023-03-14T04:33:44.889Z,2.43
2023-03-14T04:36:48.696Z,2.17
2023-03-14T04:39:51.658Z,2.40
2023-03-14T04:42:54.747Z,2.03
2023-03-14T04:46:00.164Z,2.67
2023-03-14T04:49:03.148Z,2.80
2023-03-14T04:52:06.143Z,3.17
2023-03-14T04:55:09.639Z,2.67
2023-03-14T04:58:12.549Z,2.90
2023-03-14T05:01:17.201Z,2.27
2023-03-14T05:04:20.143Z,2.30
2023-03-14T05:07:23.110Z,2.37
2023-03-14T05:10:26.553Z,2.17
2023-03-14T05:13:29.585Z,1.97
2023-03-14T05:16:33.986Z,1.53
2023-03-14T05:19:37.541Z,1.77
2023-03-14T05:22:40.682Z,1.40
2023-03-14T05:25:45.328Z,1.50
2023-03-14T05:28:48.262Z,1.70
2023-03-14T05:31:52.587Z,2.10
2023-03-14T05:34:59.063Z,1.80
2023-03-14T05:38:02.031Z,1.47
2023-03-14T05:41:05.700Z,2.07
2023-03-14T05:44:08.643Z,2.17
2023-03-14T05:47:13.104Z,2.63
2023-03-14T05:50:16.061Z,2.13
2023-03-14T05:53:18.980Z,2.30
2023-03-14T05:56:21.952Z,2.27
2023-03-14T05:59:24.933Z,2.40
2023-03-14T06:02:29.322Z,2.57
2023-03-14T06:05:32.318Z,3.40
2023-03-14T06:08:35.461Z,3.33
2023-03-14T06:11:38.399Z,3.43
2023-03-14T06:14:41.348Z,3.70
2023-03-14T06:17:45.633Z,3.80
2023-03-14T06:20:48.687Z,3.40
2023-03-14T06:23:51.695Z,3.33
2023-03-14T06:26:54.668Z,4.00
2023-03-14T06:29:57.648Z,4.23
2023-03-14T06:33:01.988Z,3.70
2023-03-14T06:36:05.478Z,3.30
2023-03-14T06:39:08.603Z,3.23
2023-03-14T06:42:11.729Z,2.87
2023-03-14T06:45:14.807Z,2.83
2023-03-14T06:48:19.893Z,3.30
2023-03-14T06:51:23.158Z,2.83
2023-03-14T06:54:26.152Z,2.60
2023-03-14T06:57:29.237Z,3.30
2023-03-14T07:00:32.253Z,2.57
2023-03-14T07:03:36.518Z,2.20
2023-03-14T07:06:40.584Z,2.60
2023-03-14T07:09:43.516Z,1.70
2023-03-14T07:12:46.524Z,2.10
2023-03-14T07:15:49.527Z,1.90
2023-03-14T07:18:53.807Z,1.83
2023-03-14T07:21:56.967Z,1.97
2023-03-14T07:24:59.896Z,1.43
2023-03-14T07:28:02.837Z,1.67
2023-03-14T07:31:06.308Z,1.40
2023-03-14T07:34:10.740Z,1.77
2023-03-14T07:37:14.811Z,1.40
2023-03-14T07:40:17.953Z,1.90
2023-03-14T07:43:20.937Z,2.03
2023-03-14T07:46:24.064Z,2.00
2023-03-14T07:49:28.399Z,1.67
2023-03-14T07:52:31.361Z,1.67
2023-03-14T07:55:34.301Z,2.40
2023-03-14T07:58:37.228Z,1.70
2023-03-14T08:01:40.344Z,1.53
2023-03-14T08:04:44.845Z,1.30
2023-03-14T08:07:47.791Z,1.50
2023-03-14T08:10:50.742Z,1.03
2023-03-14T08:13:53.768Z,1.43
2023-03-14T08:16:56.785Z,1.30
2023-03-14T08:20:01.074Z,1.53
2023-03-14T08:23:04.133Z,1.20
2023-03-14T08:26:08.141Z,1.17
2023-03-14T08:29:11.065Z,1.10
2023-03-14T08:32:14.197Z,1.60
2023-03-14T08:35:18.608Z,1.20
2023-03-14T08:38:21.562Z,1.50
2023-03-14T08:41:24.499Z,1.53
2023-03-14T08:44:27.459Z,1.80
2023-03-14T08:47:30.509Z,1.83
2023-03-14T08:50:35.309Z,1.80
2023-03-14T08:53:38.773Z,1.73
2023-03-14T08:56:42.305Z,2.50
2023-03-14T08:59:45.308Z,2.57
2023-03-14T09:02:48.299Z,2.77
2023-03-14T09:05:53.163Z,2.17
2023-03-14T09:08:56.226Z,2.30
2023-03-14T09:11:59.546Z,2.50
2023-03-14T09:15:02.712Z,2.73
2023-03-14T09:18:05.669Z,2.53
2023-03-14T09:21:10.173Z,2.40
2023-03-14T09:24:13.114Z,2.23
2023-03-14T09:27:16.063Z,3.47
2023-03-14T09:30:19.259Z,2.40
2023-03-14T09:33:22.726Z,2.53
2023-03-14T09:36:27.048Z,2.87
2023-03-14T09:39:29.961Z,2.33
2023-03-14T09:42:32.991Z,2.70
2023-03-14T09:45:38.261Z,2.47
2023-03-14T09:48:42.567Z,2.27
2023-03-14T09:51:48.695Z,3.40
2023-03-14T09:54:53.785Z,2.63
2023-03-14T09:58:01.114Z,1.40
2023-03-14T10:01:04.749Z,0.80
2023-03-14T10:04:14.038Z,0.90
2023-03-14T10:07:21.892Z,0.77
2023-03-14T10:10:27.185Z,0.60
2023-03-14T10:13:30.389Z,1.00
2023-03-14T10:16:38.308Z,0.70
2023-03-14T10:19:53.254Z,1.00
2023-03-14T10:22:57.746Z,0.80
2023-03-14T10:26:05.693Z,0.60
2023-03-14T10:29:13.962Z,0.50
2023-03-14T10:32:22.952Z,0.60
2023-03-14T10:35:26.361Z,0.50
2023-03-14T10:38:32.612Z,0.47
2023-03-14T10:41:35.839Z,0.30
2023-03-14T10:44:40.743Z,0.30
2023-03-14T10:47:50.722Z,0.50
2023-03-14T10:50:59.047Z,0.43
2023-03-14T10:54:05.105Z,0.50
2023-03-14T10:57:08.475Z,0.43
2023-03-14T11:00:17.919Z,0.20
2023-03-14T11:03:22.134Z,0.50
2023-03-14T11:06:30.933Z,0.20
2023-03-14T11:09:43.274Z,0.50
2023-03-14T11:13:03.352Z,0.30
2023-03-14T11:16:14.492Z,0.40
2023-03-14T11:19:33.616Z,0.53
2023-03-14T11:22:43.032Z,0.30
2023-03-14T11:25:55.465Z,0.50
2023-03-14T11:29:03.516Z,0.37
2023-03-14T11:32:14.963Z,0.63
2023-03-14T11:35:25.024Z,0.70
2023-03-14T11:38:35.028Z,0.47
2023-03-14T11:41:41.886Z,0.60
2023-03-14T11:44:48.205Z,0.93
2023-03-14T11:47:55.261Z,0.77
2023-03-14T11:51:01.950Z,0.87
2023-03-14T11:54:16.579Z,0.67
2023-03-14T11:57:22.866Z,0.70
2023-03-14T12:00:26.984Z,0.87
2023-03-14T12:03:37.225Z,0.70
2023-03-14T12:06:48.569Z,0.87
2023-03-14T12:09:52.677Z,1.00
2023-03-14T12:12:57.121Z,0.90
2023-03-14T12:16:01.636Z,0.77
2023-03-14T12:19:23.408Z,0.50
2023-03-14T12:22:29.804Z,0.73
2023-03-14T12:25:34.943Z,0.80
2023-03-14T12:28:40.893Z,1.10
2023-03-14T12:31:45.441Z,0.87
2023-03-14T12:34:48.458Z,1.53
2023-03-14T12:37:55.041Z,1.30
2023-03-14T12:41:04.971Z,1.17
2023-03-14T12:44:53.965Z,1.43
2023-03-14T12:48:10.292Z,1.10
2023-03-14T12:51:15.988Z,0.97
2023-03-14T12:54:44.496Z,1.03
2023-03-14T12:57:57.572Z,1.20
2023-03-14T13:01:03.525Z,1.20
2023-03-14T13:04:12.594Z,1.57
2023-03-14T13:07:30.696Z,1.50
2023-03-14T13:10:44.019Z,2.17
2023-03-14T13:13:49.638Z,2.30
2023-03-14T13:16:52.705Z,1.60
2023-03-14T13:20:01.723Z,1.90
2023-03-14T13:23:05.298Z,1.50
2023-03-14T13:26:15.300Z,1.43
2023-03-14T13:29:21.121Z,1.40
2023-03-14T13:32:28.660Z,2.03
2023-03-14T13:35:41.965Z,1.23
2023-03-14T13:38:45.037Z,1.80
2023-03-14T13:41:49.401Z,1.23
2023-03-14T13:44:53.927Z,1.20
2023-03-14T13:47:57.100Z,1.03
2023-03-14T13:51:05.265Z,0.93
2023-03-14T13:54:16.179Z,1.53
2023-03-14T13:57:19.190Z,1.00
2023-03-14T14:00:24.829Z,1.60
2023-03-14T14:03:28.618Z,1.37
2023-03-14T14:06:36.330Z,1.70
2023-03-14T14:09:41.187Z,1.30
2023-03-14T14:12:51.134Z,1.83
2023-03-14T14:15:56.283Z,1.83
2023-03-14T14:19:01.445Z,1.00
2023-03-14T14:22:07.688Z,1.20
2023-03-14T14:25:15.607Z,2.37
2023-03-14T14:28:25.037Z,1.40
2023-03-14T14:31:28.091Z,1.20
2023-03-14T14:34:31.168Z,1.20
2023-03-14T14:37:42.462Z,1.50
2023-03-14T14:40:47.474Z,1.60
2023-03-14T14:43:50.884Z,1.37
2023-03-14T14:46:54.032Z,1.40
2023-03-14T14:50:02.191Z,1.10
2023-03-14T14:53:24.473Z,1.00
2023-03-14T14:56:30.092Z,0.80
2023-03-14T14:59:34.783Z,1.07
2023-03-14T15:02:45.030Z,0.83
2023-03-14T15:05:48.090Z,0.83
2023-03-14T15:08:52.412Z,0.93
2023-03-14T15:11:55.462Z,1.10
2023-03-14T15:14:58.719Z,1.63
2023-03-14T15:18:01.780Z,1.30
2023-03-14T15:21:05.073Z,1.43
2023-03-14T15:24:11.317Z,1.47
2023-03-14T15:27:16.904Z,1.27
2023-03-14T15:30:20.204Z,1.67
2023-03-14T15:33:24.212Z,1.60
2023-03-14T15:36:31.612Z,1.20
2023-03-14T15:39:36.228Z,1.63
2023-03-14T15:42:39.204Z,1.33
2023-03-14T15:45:42.488Z,1.50
2023-03-14T15:48:46.150Z,1.40
2023-03-14T15:51:49.703Z,1.20
2023-03-14T15:54:54.040Z,1.60
2023-03-14T15:57:57.103Z,1.30
2023-03-14T16:01:00.117Z,1.47
2023-03-14T16:04:03.428Z,1.30
2023-03-14T16:07:06.885Z,1.17
2023-03-14T16:10:14.091Z,1.23
2023-03-14T16:13:17.616Z,1.53
2023-03-14T16:16:20.693Z,1.20
2023-03-14T16:19:23.748Z,1.27
2023-03-14T16:22:26.747Z,1.70
2023-03-14T16:25:31.517Z,1.40
2023-03-14T16:28:34.653Z,1.20
2023-03-14T16:31:42.923Z,1.47
2023-03-14T16:34:45.962Z,1.27
2023-03-14T16:37:48.922Z,1.07
2023-03-14T16:41:00.609Z,1.00
2023-03-14T16:44:03.638Z,1.50
2023-03-14T16:47:10.555Z,1.30
2023-03-14T16:50:13.884Z,1.17
2023-03-14T16:53:16.833Z,1.30
2023-03-14T16:56:21.383Z,1.20
2023-03-14T16:59:25.376Z,1.00
2023-03-14T17:02:28.332Z,1.30
2023-03-14T17:05:31.418Z,0.93
2023-03-14T17:08:34.672Z,1.43
2023-03-14T17:11:39.107Z,1.23
2023-03-14T17:14:42.045Z,1.37
2023-03-14T17:17:45.202Z,1.93
2023-03-14T17:20:48.160Z,1.67
2023-03-14T17:23:51.906Z,1.07
2023-03-14T17:26:56.209Z,1.23
2023-03-14T17:29:59.163Z,1.23
2023-03-14T17:33:02.188Z,1.13
2023-03-14T17:36:06.131Z,1.10
2023-03-14T17:39:09.261Z,0.93
2023-03-14T17:42:14.081Z,1.17
2023-03-14T17:45:17.368Z,1.20
2023-03-14T17:48:20.443Z,1.30
2023-03-14T17:51:23.371Z,1.33
2023-03-14T17:54:26.460Z,1.80
2023-03-14T17:57:31.239Z,1.50
2023-03-14T18:00:34.213Z,1.00
2023-03-14T18:03:37.191Z,1.27
2023-03-14T18:06:40.142Z,0.90
2023-03-14T18:09:43.491Z,1.43
2023-03-14T18:12:47.966Z,1.20
2023-03-14T18:15:52.107Z,2.30
2023-03-14T18:18:56.949Z,1.70
2023-03-14T18:21:59.916Z,1.33
2023-03-14T18:25:03.843Z,1.30
2023-03-14T18:28:08.147Z,1.70
2023-03-14T18:31:13.501Z,1.37
2023-03-14T18:34:16.586Z,1.60
2023-03-14T18:37:19.538Z,1.27
2023-03-14T18:40:22.698Z,1.33
2023-03-14T18:43:27.061Z,1.40
2023-03-14T18:46:30.656Z,1.70
2023-03-14T18:49:34.980Z,1.47
2023-03-14T18:52:38.939Z,1.10
2023-03-14T18:55:41.911Z,1.17
2023-03-14T18:58:46.280Z,1.50
2023-03-14T19:01:49.296Z,1.70
2023-03-14T19:04:52.835Z,1.00
2023-03-14T19:07:57.965Z,1.77
2023-03-14T19:11:03.706Z,0.83
2023-03-14T19:14:08.234Z,1.30
2023-03-14T19:17:11.239Z,1.10
2023-03-14T19:20:14.310Z,1.27
2023-03-14T19:23:18.224Z,0.90
2023-03-14T19:26:21.679Z,1.63
2023-03-14T19:29:26.054Z,1.70
2023-03-14T19:32:29.078Z,1.27
2023-03-14T19:35:32.083Z,1.63
2023-03-14T19:38:35.056Z,2.13
2023-03-14T19:41:38.019Z,1.17
2023-03-14T19:44:42.770Z,1.70
2023-03-14T19:47:45.874Z,1.43
2023-03-14T19:50:48.836Z,1.50
2023-03-14T19:53:52.217Z,1.50
2023-03-14T19:56:55.164Z,1.70
2023-03-14T19:59:59.621Z,1.60
2023-03-14T20:03:03.795Z,1.17
2023-03-14T20:06:07.899Z,1.70
2023-03-14T20:09:11.396Z,1.63
2023-03-14T20:12:14.382Z,1.27
2023-03-14T20:15:21.471Z,1.47
2023-03-14T20:18:24.555Z,1.70
2023-03-14T20:21:27.559Z,1.77
2023-03-14T20:24:33.563Z,1.50
2023-03-14T20:27:37.139Z,1.57
2023-03-14T20:30:44.364Z,1.60
2023-03-14T20:33:48.150Z,1.27
2023-03-14T20:36:52.844Z,1.50
2023-03-14T20:39:55.831Z,1.50
2023-03-14T20:42:58.776Z,1.57
2023-03-14T20:46:03.310Z,1.23
2023-03-14T20:49:06.525Z,1.80
2023-03-14T20:52:09.511Z,1.10
2023-03-14T20:55:12.732Z,1.60
2023-03-14T20:58:16.031Z,1.00
2023-03-14T21:01:20.426Z,1.60
2023-03-14T21:04:25.072Z,1.53
2023-03-14T21:07:31.239Z,1.40
2023-03-14T21:10:35.400Z,1.87
2023-03-14T21:13:38.389Z,1.37
2023-03-14T21:16:42.765Z,1.47
2023-03-14T21:19:45.731Z,1.17
2023-03-14T21:22:48.739Z,1.00
2023-03-14T21:25:51.736Z,0.77
2023-03-14T21:28:54.715Z,1.20
2023-03-14T21:31:59.045Z,1.20
2023-03-14T21:35:02.102Z,1.03
2023-03-14T21:38:05.180Z,0.87
2023-03-14T21:41:08.657Z,1.10
2023-03-14T21:44:15.617Z,1.00
2023-03-14T21:47:23.397Z,1.10
2023-03-14T21:50:27.838Z,0.90
2023-03-14T21:53:30.786Z,1.00
2023-03-14T21:56:33.832Z,0.90
2023-03-14T21:59:38.861Z,1.37
2023-03-14T22:02:49.685Z,0.93
2023-03-14T22:05:56.768Z,1.17
2023-03-14T22:08:59.754Z,1.50
2023-03-14T22:12:02.938Z,0.97
2023-03-14T22:15:07.194Z,1.23
2023-03-14T22:18:11.550Z,1.67
2023-03-14T22:21:14.618Z,1.20
2023-03-14T22:24:17.640Z,1.20
2023-03-14T22:27:22.485Z,1.20
2023-03-14T22:30:25.592Z,1.03
2023-03-14T22:33:29.977Z,1.27
2023-03-14T22:36:32.951Z,1.07
2023-03-14T22:39:36.066Z,1.13
2023-03-14T22:42:39.090Z,0.83
2023-03-14T22:45:42.125Z,1.47
2023-03-14T22:48:46.460Z,1.10
2023-03-14T22:51:49.522Z,1.33
2023-03-14T22:54:56.182Z,1.13
2023-03-14T22:57:59.459Z,1.30
2023-03-14T23:01:02.974Z,1.50
2023-03-14T23:04:07.488Z,1.07
2023-03-14T23:07:10.598Z,0.67
2023-03-14T23:10:13.733Z,1.00
2023-03-14T23:13:16.850Z,1.17
2023-03-14T23:16:25.189Z,0.80
2023-03-14T23:19:38.729Z,0.97
2023-03-14T23:22:42.008Z,1.00
2023-03-14T23:25:53.440Z,0.80
2023-03-14T23:28:56.856Z,1.13
2023-03-14T23:31:59.847Z,1.03
2023-03-14T23:35:04.232Z,0.63
2023-03-14T23:38:07.146Z,0.97
2023-03-14T23:41:14.314Z,0.73
2023-03-14T23:44:18.362Z,1.00
2023-03-14T23:47:21.319Z,1.10
2023-03-14T23:50:25.618Z,1.00
2023-03-14T23:53:30.310Z,0.93
2023-03-14T23:56:33.280Z,0.80
2023-03-14T23:59:38.155Z,0.63
